Aeroporto :
LOGIN :

Iscrizione | Disclaimer

   EN    FR    IT 

 










Sommario :    VFR   VFR Marginale   IFR   IFR Intensivo   IFR Molto Intensivo
Visibilità : 
Base nubi : 
>= 8 km
>= 3000ft
5 / 8 km
1000 / 3000 ft
1500m / 5 km
500 / 1000 ft
800 / 1500m
200 / 500 ft
< 800m
< 200 ft
Simboli :   Temporali  Nebbia  Neve Forte  Precipitazioni Forti  Vento > 20 kt
SIGMETs :   Varie  Temporali  Ghiacco  Turbolenza  Onda orograficha  Ceneri Vulcaniche






- Altitudine del aeroporto : 36 ft
- Codice IATA : GJL


DAAV - Jijel Ferhat Abbas

ULTIMO METAR :
  • 131400Z 22003KT 9999 SCT030 BKN090 17/07 Q1007

METARs OBSOLETI :
  • 131300Z 18005KT 9999 SCT030 BKN090 18/06 Q1007

TAF TAF DAAV
Valido dal 13 a 12 ore il 14 a 12 ore UTC


131100Z 1312/1412 24012KT 9999 FEW020 SCT026
TEMPO 1312/1324 24015G25KT FEW020CB
PROB40
TEMPO 1313/1324 3000 -TSRA SCT015CB



MetMap, La meteo Aeronautica in un colpo d'occhio ! - Copyright ORBIFLY Dicembre 2007 - Disclaimer

ORBIFLY MET'MAP TEAM :

Programmazione e sviluppo : Alexandra Zaïnal
Concezione e sviluppo : Baudouin d'Aumeries
Co-Programmazione e sviluppo : Marc-Olivier Méhu
Supporto tecnico e logistico : Manuel Goepfert
Aiuto per la traduzione : Arnaldo La Scala

Contatto : metmap@orbifly.com




FONTI E CREDITI :

   NOAA